Time;durP1;ratioP1;P1;durP2;ratioP2;P2;SDS_P1;SDS_P2;PMS_P1;PMS_P2;Temp;Humidity;BMP_temperature;BMP_pressure;BME280_temperature;BME280_humidity;BME280_pressure;Samples;Min_cycle;Max_cycle;Signal;HPM_P1;HPM_P2
2021/10/06 07:19:22;;;;;;;7.97;4.10;;;11.30;99.90;;;;;;5124961;27;20386;-74
2021/10/06 07:21:48;;;;;;;6.77;4.23;;;11.20;99.90;;;;;;5130180;27;20548;-72
2021/10/06 07:24:15;;;;;;;6.73;3.87;;;11.30;99.90;;;;;;5128651;28;20078;-74
2021/10/06 07:26:43;;;;;;;5.80;3.40;;;11.30;99.90;;;;;;5128683;27;20044;-75
2021/10/06 07:29:09;;;;;;;5.70;3.40;;;11.30;99.90;;;;;;5130448;27;20039;-72
2021/10/06 07:31:35;;;;;;;7.17;4.10;;;11.40;99.90;;;;;;5128099;27;20043;-71
2021/10/06 07:34:02;;;;;;;6.73;3.07;;;11.40;99.90;;;;;;5128907;27;20141;-71
2021/10/06 07:36:27;;;;;;;7.80;3.17;;;11.50;99.90;;;;;;5128875;27;20047;-69
2021/10/06 07:38:54;;;;;;;7.17;3.10;;;11.60;99.90;;;;;;5129175;27;20495;-70
2021/10/06 07:41:20;;;;;;;5.53;3.10;;;11.60;99.90;;;;;;5128517;28;20050;-69
2021/10/06 07:43:46;;;;;;;6.13;3.13;;;11.60;99.90;;;;;;5129609;27;20483;-69
2021/10/06 07:46:11;;;;;;;4.47;2.53;;;11.70;99.90;;;;;;5127913;27;20039;-69
2021/10/06 07:48:37;;;;;;;4.37;2.70;;;11.70;99.90;;;;;;5128690;28;20467;-69
2021/10/06 07:51:03;;;;;;;2.80;2.33;;;11.80;99.90;;;;;;5128910;27;20040;-70
2021/10/06 07:53:28;;;;;;;5.20;2.27;;;11.80;99.90;;;;;;5128996;27;20055;-70
2021/10/06 07:55:54;;;;;;;3.47;2.20;;;11.90;99.90;;;;;;5128035;27;20043;-69
2021/10/06 07:58:20;;;;;;;5.73;2.20;;;12.00;99.90;;;;;;5129642;27;20130;-70
2021/10/06 08:00:45;;;;;;;3.50;2.13;;;12.10;99.90;;;;;;5129361;27;20047;-70
2021/10/06 08:03:11;;;;;;;3.27;2.37;;;12.10;99.90;;;;;;5128298;27;20052;-69
2021/10/06 08:05:36;;;;;;;3.87;2.03;;;12.10;99.90;;;;;;5127442;27;20052;-69
2021/10/06 08:08:02;;;;;;;4.13;2.30;;;12.10;99.90;;;;;;5129395;27;20130;-69
2021/10/06 08:10:28;;;;;;;4.80;2.40;;;12.20;99.90;;;;;;5128215;27;20126;-69
2021/10/06 08:12:53;;;;;;;3.07;2.30;;;12.20;99.90;;;;;;5127148;28;20048;-69
2021/10/06 08:15:19;;;;;;;4.60;2.33;;;12.30;99.90;;;;;;5129380;27;20119;-70
2021/10/06 08:17:45;;;;;;;4.83;2.60;;;12.30;99.90;;;;;;5128961;27;20044;-71
2021/10/06 08:20:10;;;;;;;2.53;2.03;;;12.40;99.90;;;;;;5127074;27;20051;-70
2021/10/06 08:22:36;;;;;;;2.63;2.27;;;12.40;99.90;;;;;;5129037;27;20047;-64
2021/10/06 08:25:02;;;;;;;4.33;2.40;;;12.40;99.90;;;;;;5128672;27;20047;-65
2021/10/06 08:27:27;;;;;;;4.50;2.40;;;12.40;99.90;;;;;;5127185;27;20043;-65
2021/10/06 08:29:53;;;;;;;5.80;2.77;;;12.30;99.90;;;;;;5119924;27;20050;-70
2021/10/06 08:32:19;;;;;;;4.70;2.77;;;12.30;99.90;;;;;;5114192;28;20172;-70
2021/10/06 08:34:44;;;;;;;4.17;2.70;;;12.30;99.90;;;;;;5114302;28;20058;-72
2021/10/06 08:37:10;;;;;;;6.00;3.23;;;12.30;99.90;;;;;;5114131;28;20080;-72
2021/10/06 08:39:35;;;;;;;4.03;3.40;;;12.20;99.90;;;;;;5115312;28;20124;-72
2021/10/06 08:42:01;;;;;;;6.00;3.70;;;12.20;99.90;;;;;;5112948;28;20036;-71
2021/10/06 08:44:34;;;;;;;4.37;3.27;;;12.20;99.90;;;;;;5113971;28;20048;-71
2021/10/06 08:47:00;;;;;;;7.10;3.33;;;12.20;99.90;;;;;;5115227;28;20046;-71
2021/10/06 08:49:27;;;;;;;4.30;3.20;;;12.20;99.90;;;;;;5112999;28;20411;-71
2021/10/06 08:51:53;;;;;;;5.43;3.33;;;12.20;99.90;;;;;;5113595;28;20043;-69
2021/10/06 08:54:19;;;;;;;5.77;3.63;;;12.20;99.90;;;;;;5114821;28;20047;-69
2021/10/06 08:56:48;;;;;;;5.97;3.57;;;12.20;99.90;;;;;;5114117;28;20055;-70
2021/10/06 08:59:13;;;;;;;3.57;3.23;;;12.30;99.90;;;;;;5113590;28;20051;-70
2021/10/06 09:01:42;;;;;;;4.60;3.03;;;12.30;99.90;;;;;;5114205;28;20480;-69
2021/10/06 09:04:08;;;;;;;5.33;3.23;;;12.30;99.90;;;;;;5109428;28;20047;-70
2021/10/06 09:06:37;;;;;;;4.20;3.03;;;12.30;99.90;;;;;;5114116;28;20052;-69
2021/10/06 10:40:34;;;;;;;6.10;4.70;;;12.80;99.20;;;;;;5110747;27;20362;-70
2021/10/06 10:43:03;;;;;;;5.63;3.93;;;12.90;99.00;;;;;;5099098;28;20081;-71
2021/10/06 10:45:49;;;;;;;7.83;3.90;;;12.90;99.40;;;;;;5105091;28;20056;-71
2021/10/06 10:48:22;;;;;;;7.23;3.87;;;13.00;99.80;;;;;;5102752;28;20044;-71
2021/10/06 10:50:48;;;;;;;9.10;3.97;;;13.00;99.90;;;;;;5103479;28;20036;-75
2021/10/06 10:53:16;;;;;;;7.90;3.83;;;13.10;99.90;;;;;;5090028;28;20049;-73
2021/10/06 10:56:00;;;;;;;7.13;3.70;;;13.20;99.90;;;;;;5101460;28;20036;-71
2021/10/06 10:58:30;;;;;;;6.37;3.13;;;13.30;99.90;;;;;;5078978;28;20434;-67
2021/10/06 11:00:57;;;;;;;6.63;3.43;;;13.30;99.90;;;;;;5085837;28;20040;-68
2021/10/06 11:03:22;;;;;;;8.37;3.27;;;13.40;99.90;;;;;;5085270;28;20040;-69
2021/10/06 11:05:49;;;;;;;5.20;2.80;;;13.40;99.90;;;;;;5085598;28;20047;-68
2021/10/06 11:08:29;;;;;;;7.17;3.20;;;13.40;99.90;;;;;;5084177;28;20040;-67
2021/10/06 11:11:10;;;;;;;8.07;4.13;;;13.40;99.90;;;;;;5085809;28;20044;-67
2021/10/06 11:13:44;;;;;;;7.20;3.47;;;13.40;99.90;;;;;;5085810;28;20127;-68
2021/10/06 11:16:10;;;;;;;7.00;3.17;;;13.30;99.90;;;;;;5084185;28;20055;-67
2021/10/06 11:18:48;;;;;;;7.20;4.90;;;13.30;99.90;;;;;;5083747;28;20044;-67
2021/10/06 11:21:40;;;;;;;6.00;3.43;;;13.30;99.90;;;;;;5084567;28;20041;-67
2021/10/06 11:24:25;;;;;;;4.60;3.80;;;13.30;99.90;;;;;;5083046;28;20475;-67
